KBEH/BEH METAR and TAF weather

Enter ICAO airport designator
Station Type Date Time Source
KBEH METAR 2018/01/23 00:53 UTC NOAA

KBEH 230053Z AUTO 15005KT 10SM BKN065 10/07 A2950 RMK AO2 SLP992 T01000072


Station Type Date Time Source
KBEH Decoded METAR 2018/01/23 00:53 UTC NOAA

SOUTHWEST MICHIGAN REGIONAL, MI, United States (KBEH) 42-08N 86-25W 191M
Jan 22, 2018 - 07:53 PM EST / 2018.01.23 0053 UTC
Wind: from the SSE (150 degrees) at 6 MPH (5 KT):0
Visibility: 10 mile(s):0
Sky conditions: mostly cloudy
Temperature: 50.0 F (10.0 C)
Dew Point: 45.0 F (7.2 C)
Relative Humidity: 82%
Pressure (altimeter): 29.5 in. Hg (998 hPa)
ob: KBEH 230053Z AUTO 15005KT 10SM BKN065 10/07 A2950 RMK AO2 SLP992 T01000072
cycle: 1

Station Type Date Time Source
KBEH TAF UTC NOAA

Error!


Example: see airport list